createdAt,value
2018-08-12T00:00:44.446Z,19.10
2018-08-12T00:03:12.511Z,18.90
2018-08-12T00:05:41.214Z,19.10
2018-08-12T00:08:09.364Z,19.20
2018-08-12T00:10:37.512Z,19.20
2018-08-12T00:13:05.721Z,19.60
2018-08-12T00:15:33.911Z,19.80
2018-08-12T00:18:02.068Z,19.70
2018-08-12T00:20:30.412Z,19.50
2018-08-12T00:22:58.584Z,19.50
2018-08-12T00:25:26.706Z,19.30
2018-08-12T00:27:54.863Z,19.20
2018-08-12T00:30:22.975Z,18.70
2018-08-12T00:32:51.099Z,18.30
2018-08-12T00:35:19.731Z,18.00
2018-08-12T00:37:47.883Z,17.90
2018-08-12T00:40:17.003Z,18.10
2018-08-12T00:42:45.711Z,17.60
2018-08-12T00:45:15.915Z,17.70
2018-08-12T00:47:44.611Z,17.90
2018-08-12T00:50:13.535Z,17.70
2018-08-12T00:52:41.714Z,17.80
2018-08-12T00:55:11.989Z,18.00
2018-08-12T00:57:40.476Z,18.40
2018-08-12T01:00:14.080Z,18.50
2018-08-12T01:02:42.315Z,18.20
2018-08-12T01:05:12.572Z,18.10
2018-08-12T01:07:41.172Z,18.00
2018-08-12T01:10:10.068Z,17.80
2018-08-12T01:12:38.959Z,17.60
2018-08-12T01:15:09.670Z,17.70
2018-08-12T01:17:37.822Z,18.00
2018-08-12T01:20:07.379Z,18.10
2018-08-12T01:22:35.562Z,18.30
2018-08-12T01:25:04.295Z,18.40
2018-08-12T01:27:32.435Z,18.00
2018-08-12T01:30:00.608Z,17.80
2018-08-12T01:32:28.764Z,18.00
2018-08-12T01:34:56.981Z,18.20
2018-08-12T01:37:25.558Z,18.60
2018-08-12T01:39:53.702Z,18.70
2018-08-12T01:42:21.851Z,19.10
2018-08-12T01:44:50.016Z,19.10
2018-08-12T01:47:18.127Z,19.40
2018-08-12T01:49:46.251Z,19.60
2018-08-12T01:52:14.367Z,19.80
2018-08-12T01:54:42.495Z,19.80
2018-08-12T01:57:10.665Z,19.90
2018-08-12T01:59:38.823Z,19.90
2018-08-12T02:02:06.972Z,19.80
2018-08-12T02:04:35.625Z,19.80
2018-08-12T02:07:03.819Z,19.80
2018-08-12T02:09:31.932Z,19.80
2018-08-12T02:12:00.045Z,19.70
2018-08-12T02:14:28.208Z,19.70
2018-08-12T02:16:56.307Z,19.70
2018-08-12T02:24:22.990Z,19.60
2018-08-12T02:26:51.101Z,19.10
2018-08-12T02:29:19.298Z,19.20
2018-08-12T02:31:47.439Z,19.30
2018-08-12T02:34:15.576Z,19.40
2018-08-12T02:36:43.696Z,19.50
2018-08-12T02:39:12.536Z,19.50
2018-08-12T02:41:40.731Z,19.50
2018-08-12T02:44:08.868Z,19.50
2018-08-12T02:46:37.011Z,19.50
2018-08-12T02:49:05.476Z,19.50
2018-08-12T02:51:33.807Z,19.40
2018-08-12T02:54:01.943Z,19.40
2018-08-12T02:56:30.067Z,19.50
2018-08-12T02:58:58.179Z,19.30
2018-08-12T03:01:26.288Z,19.30
2018-08-12T03:03:54.407Z,19.30
2018-08-12T03:06:22.505Z,19.30
2018-08-12T03:08:50.627Z,19.20
2018-08-12T03:11:18.759Z,19.20
2018-08-12T03:13:46.879Z,19.30
2018-08-12T03:16:15.007Z,19.30
2018-08-12T03:18:43.115Z,19.20
2018-08-12T03:21:11.241Z,19.10
2018-08-12T03:23:39.356Z,19.10
2018-08-12T03:26:07.484Z,19.10
2018-08-12T03:28:35.632Z,19.00
2018-08-12T03:31:03.748Z,19.00
2018-08-12T03:33:31.856Z,19.00
2018-08-12T03:35:59.966Z,19.10
2018-08-12T03:38:28.479Z,19.10
2018-08-12T03:40:56.688Z,19.10
2018-08-12T03:43:24.788Z,18.90
2018-08-12T03:45:52.903Z,19.00
2018-08-12T03:48:21.045Z,18.70
2018-08-12T03:50:49.176Z,18.80
2018-08-12T03:53:17.367Z,18.60
2018-08-12T03:55:45.489Z,18.40
2018-08-12T03:58:13.600Z,18.60
2018-08-12T04:00:41.715Z,18.70
2018-08-12T04:03:09.824Z,18.70
2018-08-12T04:05:37.940Z,18.40
2018-08-12T04:08:06.087Z,18.50
2018-08-12T04:10:35.181Z,18.20
2018-08-12T04:13:03.335Z,17.70
2018-08-12T04:15:31.454Z,17.80
2018-08-12T04:18:00.112Z,17.80
2018-08-12T04:20:28.222Z,17.90
2018-08-12T04:22:56.399Z,17.70
2018-08-12T04:25:24.521Z,17.50
2018-08-12T04:27:52.619Z,17.40
2018-08-12T04:30:20.739Z,17.20
2018-08-12T04:32:48.844Z,17.30
2018-08-12T04:35:17.024Z,17.60
2018-08-12T04:37:45.175Z,17.70
2018-08-12T04:40:13.291Z,17.40
2018-08-12T04:42:41.411Z,17.60
2018-08-12T04:45:09.531Z,17.50
2018-08-12T04:47:38.017Z,17.20
2018-08-12T04:50:07.119Z,17.30
2018-08-12T04:52:35.555Z,17.50
2018-08-12T04:55:03.724Z,17.40
2018-08-12T04:57:31.877Z,17.70
2018-08-12T05:00:00.023Z,17.70
2018-08-12T05:02:28.147Z,17.40
2018-08-12T05:04:56.300Z,17.70
2018-08-12T05:07:24.435Z,17.80
2018-08-12T05:09:52.571Z,17.80
2018-08-12T05:12:20.711Z,17.80
2018-08-12T05:14:48.847Z,17.60
2018-08-12T05:17:16.995Z,17.60
2018-08-12T05:19:45.133Z,17.80
2018-08-12T05:22:13.316Z,17.60
2018-08-12T05:24:41.464Z,17.70
2018-08-12T05:27:09.647Z,18.00
2018-08-12T05:29:37.810Z,18.40
2018-08-12T05:32:06.268Z,18.50
2018-08-12T05:34:34.462Z,18.60
2018-08-12T05:37:02.742Z,18.70
2018-08-12T05:39:30.887Z,18.70
2018-08-12T05:41:59.061Z,18.60
2018-08-12T05:44:27.238Z,18.70
2018-08-12T05:46:55.375Z,19.30
2018-08-12T05:49:23.774Z,19.40
2018-08-12T05:51:51.883Z,19.10
2018-08-12T05:54:20.111Z,19.30
2018-08-12T05:56:48.247Z,19.20
2018-08-12T05:59:16.435Z,19.30
2018-08-12T06:01:44.591Z,19.00
2018-08-12T06:04:12.731Z,19.40
2018-08-12T06:06:40.870Z,19.70
2018-08-12T06:09:09.938Z,19.30
2018-08-12T06:11:38.127Z,19.80
2018-08-12T06:14:07.095Z,20.20
2018-08-12T06:16:35.250Z,20.10
2018-08-12T06:19:03.403Z,20.00
2018-08-12T06:21:31.560Z,20.00
2018-08-12T06:23:59.699Z,20.10
2018-08-12T06:26:27.849Z,19.70
2018-08-12T06:28:55.988Z,20.10
2018-08-12T06:31:24.140Z,20.10
2018-08-12T06:33:52.289Z,20.70
2018-08-12T06:36:20.444Z,21.90
2018-08-12T06:38:48.606Z,23.90
2018-08-12T06:41:16.755Z,24.60
2018-08-12T06:43:44.903Z,25.50
2018-08-12T06:46:13.085Z,26.60
2018-08-12T06:48:41.210Z,26.70
2018-08-12T06:51:09.346Z,26.50
2018-08-12T06:53:37.506Z,26.90
2018-08-12T06:56:05.660Z,26.60
2018-08-12T06:58:33.834Z,25.60
2018-08-12T07:01:01.990Z,26.00
2018-08-12T07:03:30.137Z,27.50
2018-08-12T07:05:58.295Z,27.10
2018-08-12T07:08:26.436Z,27.50
2018-08-12T07:10:54.584Z,28.60
2018-08-12T07:13:22.779Z,27.90
2018-08-12T07:15:50.976Z,27.00
2018-08-12T07:18:19.125Z,27.60
2018-08-12T07:20:47.260Z,26.40
2018-08-12T07:23:15.397Z,26.50
2018-08-12T07:25:43.541Z,26.00
2018-08-12T07:28:11.731Z,25.50
2018-08-12T07:30:40.708Z,25.20
2018-08-12T07:33:08.867Z,25.60
2018-08-12T07:35:37.083Z,25.30
2018-08-12T07:38:05.244Z,25.40
2018-08-12T07:40:33.422Z,24.60
2018-08-12T07:43:02.017Z,23.50
2018-08-12T07:45:30.151Z,24.60
2018-08-12T07:47:58.310Z,24.80
2018-08-12T07:50:27.359Z,25.30
2018-08-12T07:52:55.571Z,26.40
2018-08-12T07:55:23.691Z,28.20
2018-08-12T07:57:51.811Z,28.20
2018-08-12T08:00:21.084Z,27.70
2018-08-12T08:02:49.349Z,28.70
2018-08-12T08:05:17.530Z,30.10
2018-08-12T08:07:45.955Z,30.90
2018-08-12T08:10:15.396Z,30.60
2018-08-12T08:12:43.679Z,30.50
2018-08-12T08:15:15.986Z,31.50
2018-08-12T08:17:44.199Z,31.10
2018-08-12T08:20:13.636Z,31.60
2018-08-12T08:22:42.059Z,31.80
2018-08-12T08:25:10.908Z,32.30
2018-08-12T08:27:39.228Z,31.80
2018-08-12T08:30:09.526Z,29.70
2018-08-12T08:32:38.006Z,29.60
2018-08-12T08:35:06.667Z,29.30
2018-08-12T08:37:34.955Z,29.90
2018-08-12T08:40:03.302Z,30.50
2018-08-12T08:42:31.507Z,30.30
2018-08-12T08:44:59.694Z,30.00
2018-08-12T08:47:28.891Z,28.90
2018-08-12T08:49:57.141Z,28.80
2018-08-12T08:52:25.260Z,29.10
2018-08-12T08:54:53.425Z,28.90
2018-08-12T08:57:21.586Z,28.80
2018-08-12T08:59:49.738Z,29.40
2018-08-12T09:02:17.911Z,28.60
2018-08-12T09:04:46.075Z,28.60
2018-08-12T09:07:14.734Z,28.90
2018-08-12T09:09:42.952Z,28.90
2018-08-12T09:12:11.123Z,28.00
2018-08-12T09:14:39.322Z,28.10
2018-08-12T09:17:07.512Z,28.60
2018-08-12T09:19:35.876Z,29.00
2018-08-12T09:22:04.003Z,29.20
2018-08-12T09:24:32.264Z,29.50
2018-08-12T09:27:00.399Z,29.30
2018-08-12T09:29:28.551Z,29.40
2018-08-12T09:31:56.742Z,29.90
2018-08-12T09:34:24.971Z,30.30
2018-08-12T09:36:53.110Z,30.80
2018-08-12T09:39:21.264Z,30.90
2018-08-12T09:41:49.456Z,30.80
2018-08-12T09:44:17.622Z,30.80
2018-08-12T09:46:45.778Z,30.80
2018-08-12T09:49:13.899Z,31.20
2018-08-12T09:51:42.165Z,31.00
2018-08-12T09:54:10.154Z,31.00
2018-08-12T09:56:38.277Z,31.20
2018-08-12T09:59:06.411Z,31.60
2018-08-12T10:01:34.524Z,32.10
2018-08-12T10:04:02.647Z,32.40
2018-08-12T10:06:30.791Z,32.40
2018-08-12T10:08:58.915Z,32.40
2018-08-12T10:11:27.059Z,32.60
2018-08-12T10:13:55.187Z,32.70
2018-08-12T10:16:23.298Z,32.90
2018-08-12T10:18:51.448Z,33.00
2018-08-12T10:21:19.564Z,33.20
2018-08-12T10:23:47.728Z,32.80
2018-08-12T10:26:15.835Z,32.50
2018-08-12T10:28:44.647Z,32.90
2018-08-12T10:31:12.796Z,33.30
2018-08-12T10:33:40.932Z,33.70
2018-08-12T10:36:09.060Z,34.00
2018-08-12T10:38:37.248Z,34.00
2018-08-12T10:41:05.507Z,33.70
2018-08-12T10:43:33.610Z,33.80
2018-08-12T10:46:01.749Z,33.90
2018-08-12T10:51:09.342Z,33.30
2018-08-12T10:53:37.724Z,33.50
2018-08-12T10:56:06.594Z,33.90
2018-08-12T10:58:35.366Z,34.10
2018-08-12T11:01:03.844Z,34.10
2018-08-12T11:03:32.177Z,34.20
2018-08-12T11:06:00.801Z,34.40
2018-08-12T11:08:29.138Z,34.60
2018-08-12T11:10:57.834Z,34.20
2018-08-12T11:13:27.217Z,34.30
2018-08-12T11:15:55.457Z,34.00
2018-08-12T11:18:23.580Z,34.20
2018-08-12T11:20:51.718Z,34.00
2018-08-12T11:23:19.880Z,34.30
2018-08-12T11:25:48.016Z,34.30
2018-08-12T11:28:16.165Z,34.80
2018-08-12T11:30:44.299Z,35.00
2018-08-12T11:33:12.467Z,34.50
2018-08-12T11:35:40.656Z,34.70
2018-08-12T11:38:08.802Z,35.00
2018-08-12T11:40:36.965Z,34.40
2018-08-12T11:43:05.295Z,33.50
2018-08-12T11:45:33.414Z,33.80
2018-08-12T11:48:01.577Z,34.30
2018-08-12T11:50:29.711Z,33.90
2018-08-12T11:52:57.836Z,34.20
2018-08-12T11:55:26.860Z,34.70
2018-08-12T11:57:55.490Z,35.10
2018-08-12T12:00:23.703Z,35.60
2018-08-12T12:02:52.527Z,35.40
2018-08-12T12:05:20.784Z,35.30
2018-08-12T12:07:48.937Z,35.60
2018-08-12T12:10:18.967Z,34.50
2018-08-12T12:12:48.160Z,34.20
2018-08-12T12:15:16.820Z,34.70
2018-08-12T12:17:45.344Z,35.30
2018-08-12T12:20:14.338Z,34.90
2018-08-12T12:22:43.228Z,35.10
2018-08-12T12:25:12.623Z,35.40
2018-08-12T12:27:40.789Z,35.30
2018-08-12T12:30:12.015Z,34.70
2018-08-12T12:32:40.191Z,34.90
2018-08-12T12:35:08.365Z,35.40
2018-08-12T12:37:36.475Z,35.70
2018-08-12T12:40:05.538Z,35.50
2018-08-12T12:42:33.670Z,35.40
2018-08-12T12:45:01.845Z,35.30
2018-08-12T12:47:29.967Z,34.50
2018-08-12T12:49:58.109Z,34.60
2018-08-12T12:52:27.035Z,34.90
2018-08-12T12:54:55.174Z,34.60
2018-08-12T12:57:23.506Z,34.30
2018-08-12T12:59:51.772Z,34.50
2018-08-12T13:02:19.938Z,34.90
2018-08-12T13:04:48.075Z,34.50
2018-08-12T13:07:16.239Z,34.90
2018-08-12T13:09:44.411Z,35.30
2018-08-12T13:12:12.556Z,35.10
2018-08-12T13:14:40.721Z,35.20
2018-08-12T13:17:08.863Z,35.50
2018-08-12T13:19:36.982Z,35.80
2018-08-12T13:22:05.135Z,35.60
2018-08-12T13:24:33.375Z,35.70
2018-08-12T13:27:01.549Z,34.50
2018-08-12T13:29:29.793Z,34.60
2018-08-12T13:31:57.935Z,34.50
2018-08-12T13:34:27.450Z,34.50
2018-08-12T13:36:55.843Z,35.10
2018-08-12T13:39:23.991Z,35.70
2018-08-12T13:41:52.155Z,35.80
2018-08-12T13:44:20.479Z,36.10
2018-08-12T13:46:48.628Z,36.00
2018-08-12T13:49:16.838Z,36.00
2018-08-12T13:51:44.952Z,36.00
2018-08-12T13:54:13.620Z,36.40
2018-08-12T13:56:41.797Z,35.60
2018-08-12T13:59:09.960Z,34.80
2018-08-12T14:01:38.170Z,34.60
2018-08-12T14:04:06.284Z,34.10
2018-08-12T14:06:34.437Z,34.50
2018-08-12T14:09:02.614Z,35.00
2018-08-12T14:11:30.762Z,35.10
2018-08-12T14:13:59.008Z,35.40
2018-08-12T14:16:27.580Z,35.80
2018-08-12T14:18:55.718Z,36.10
2018-08-12T14:21:23.921Z,36.10
2018-08-12T14:23:52.044Z,36.40
2018-08-12T14:26:20.274Z,36.70
2018-08-12T14:28:48.427Z,36.90
2018-08-12T14:31:16.566Z,36.90
2018-08-12T14:33:45.335Z,36.60
2018-08-12T14:36:13.524Z,36.40
2018-08-12T14:38:41.660Z,36.00
2018-08-12T14:41:09.810Z,35.40
2018-08-12T14:43:38.031Z,35.50
2018-08-12T14:46:06.249Z,35.70
2018-08-12T14:48:34.415Z,35.60
2018-08-12T14:51:02.675Z,35.50
2018-08-12T14:56:09.850Z,35.60
2018-08-12T14:58:37.981Z,35.30
2018-08-12T15:01:06.144Z,35.20
2018-08-12T15:06:08.869Z,34.30
2018-08-12T15:08:37.003Z,34.10
2018-08-12T15:11:05.196Z,33.90
2018-08-12T15:13:33.348Z,33.40
2018-08-12T15:16:01.834Z,33.40
2018-08-12T15:18:30.021Z,33.90
2018-08-12T15:20:58.156Z,34.10
2018-08-12T15:23:27.212Z,34.30
2018-08-12T15:25:55.343Z,34.30
2018-08-12T15:28:23.481Z,34.20
2018-08-12T15:30:52.587Z,33.90
2018-08-12T15:33:20.748Z,33.70
2018-08-12T15:35:48.839Z,33.10
2018-08-12T15:38:16.962Z,33.60
2018-08-12T15:40:45.306Z,33.60
2018-08-12T15:43:13.467Z,33.80
2018-08-12T15:45:41.624Z,33.80
2018-08-12T15:48:09.825Z,33.30
2018-08-12T15:50:37.964Z,33.40
2018-08-12T15:53:06.294Z,33.70
2018-08-12T15:55:34.440Z,34.00
2018-08-12T15:58:02.799Z,33.40
2018-08-12T16:00:31.007Z,33.00
2018-08-12T16:02:59.139Z,33.30
2018-08-12T16:05:27.418Z,33.60
2018-08-12T16:07:55.539Z,34.00
2018-08-12T16:10:24.209Z,33.70
2018-08-12T16:12:53.480Z,33.20
2018-08-12T16:15:22.225Z,33.30
2018-08-12T16:17:50.439Z,33.60
2018-08-12T16:20:18.567Z,33.40
2018-08-12T16:22:46.760Z,33.40
2018-08-12T16:25:20.714Z,33.50
2018-08-12T16:27:48.857Z,33.50
2018-08-12T16:30:17.761Z,33.70
2018-08-12T16:32:45.975Z,33.90
2018-08-12T16:35:15.378Z,33.80
2018-08-12T16:37:44.333Z,33.80
2018-08-12T16:40:15.087Z,33.80
2018-08-12T16:42:43.277Z,33.40
2018-08-12T16:45:12.757Z,33.10
2018-08-12T16:47:41.058Z,33.20
2018-08-12T16:50:10.310Z,33.40
2018-08-12T16:52:38.823Z,33.40
2018-08-12T16:55:08.992Z,33.60
2018-08-12T16:57:37.144Z,33.20
2018-08-12T17:00:12.412Z,33.10
2018-08-12T17:02:40.699Z,32.90
2018-08-12T17:05:12.376Z,32.90
2018-08-12T17:07:40.962Z,32.90
2018-08-12T17:10:09.758Z,32.70
2018-08-12T17:12:38.127Z,32.90
2018-08-12T17:15:07.748Z,33.00
2018-08-12T17:17:35.897Z,33.10
2018-08-12T17:20:04.984Z,33.10
2018-08-12T17:22:33.107Z,32.90
2018-08-12T17:25:01.337Z,32.90
2018-08-12T17:27:29.486Z,33.00
2018-08-12T17:29:57.621Z,32.90
2018-08-12T17:32:25.872Z,32.70
2018-08-12T17:34:53.960Z,32.60
2018-08-12T17:37:22.110Z,32.40
2018-08-12T17:39:50.312Z,32.50
2018-08-12T17:42:18.611Z,32.60
2018-08-12T17:44:46.744Z,32.60
2018-08-12T17:47:14.908Z,32.40
2018-08-12T17:49:43.059Z,32.30
2018-08-12T17:52:11.190Z,32.00
2018-08-12T17:54:39.365Z,32.20
2018-08-12T17:57:07.574Z,32.30
2018-08-12T17:59:35.715Z,32.00
2018-08-12T18:02:03.854Z,32.00
2018-08-12T18:04:32.023Z,31.70
2018-08-12T18:07:01.004Z,31.90
2018-08-12T18:09:29.211Z,31.90
2018-08-12T18:11:57.372Z,32.00
2018-08-12T18:14:25.597Z,31.90
2018-08-12T18:16:53.738Z,31.80
2018-08-12T18:19:21.928Z,31.80
2018-08-12T18:21:50.090Z,32.00
2018-08-12T18:24:18.326Z,32.10
2018-08-12T18:26:46.466Z,32.00
2018-08-12T18:29:14.601Z,31.90
2018-08-12T18:31:42.776Z,31.50
2018-08-12T18:34:10.909Z,31.80
2018-08-12T18:36:39.168Z,31.80
2018-08-12T18:39:09.258Z,31.90
2018-08-12T18:41:37.497Z,31.90
2018-08-12T18:44:05.893Z,32.00
2018-08-12T18:46:34.076Z,31.90
2018-08-12T18:49:02.375Z,31.90
2018-08-12T18:51:30.536Z,31.90
2018-08-12T18:53:58.701Z,31.90
2018-08-12T18:56:26.939Z,31.80
2018-08-12T18:58:55.085Z,31.80
2018-08-12T19:01:23.328Z,31.70
2018-08-12T19:03:52.387Z,31.60
2018-08-12T19:06:20.610Z,31.50
2018-08-12T19:08:48.796Z,31.60
2018-08-12T19:11:16.944Z,31.60
2018-08-12T19:13:45.101Z,31.50
2018-08-12T19:16:13.274Z,31.50
2018-08-12T19:18:41.453Z,31.50
2018-08-12T19:21:09.613Z,31.40
2018-08-12T19:23:37.792Z,31.30
2018-08-12T19:26:06.216Z,31.20
2018-08-12T19:28:34.432Z,31.00
2018-08-12T19:31:02.580Z,30.90
2018-08-12T19:33:30.736Z,30.90
2018-08-12T19:35:58.915Z,30.90
2018-08-12T19:38:27.252Z,30.90
2018-08-12T19:40:55.401Z,30.60
2018-08-12T19:43:23.568Z,30.20
2018-08-12T19:45:52.518Z,30.10
2018-08-12T19:48:20.689Z,30.10
2018-08-12T19:50:48.988Z,30.10
2018-08-12T19:53:17.304Z,30.20
2018-08-12T19:55:45.368Z,30.20
2018-08-12T19:58:13.558Z,30.10
2018-08-12T20:00:41.688Z,30.00
2018-08-12T20:03:09.849Z,29.70
2018-08-12T20:05:38.068Z,29.50
2018-08-12T20:08:06.250Z,29.20
2018-08-12T20:10:34.534Z,29.20
2018-08-12T20:13:02.666Z,29.00
2018-08-12T20:15:30.796Z,29.10
2018-08-12T20:17:58.957Z,29.20
2018-08-12T20:20:27.264Z,29.20
2018-08-12T20:22:55.379Z,29.30
2018-08-12T20:25:23.535Z,29.40
2018-08-12T20:27:52.671Z,29.30
2018-08-12T20:30:20.776Z,29.20
2018-08-12T20:32:48.906Z,29.00
2018-08-12T20:35:17.039Z,29.00
2018-08-12T20:37:45.250Z,28.80
2018-08-12T20:40:13.432Z,28.60
2018-08-12T20:42:41.615Z,28.60
2018-08-12T20:45:09.885Z,28.60
2018-08-12T20:47:44.522Z,28.70
2018-08-12T20:50:12.853Z,28.60
2018-08-12T20:52:41.036Z,28.70
2018-08-12T20:55:09.629Z,28.70
2018-08-12T20:57:37.812Z,28.60
2018-08-12T21:00:07.511Z,28.70
2018-08-12T21:02:35.677Z,28.50
2018-08-12T21:05:03.920Z,28.40
2018-08-12T21:07:32.072Z,28.10
2018-08-12T21:10:00.232Z,28.00
2018-08-12T21:12:28.524Z,28.10
2018-08-12T21:14:56.677Z,28.10
2018-08-12T21:17:24.829Z,28.00
2018-08-12T21:19:53.084Z,27.80
2018-08-12T21:22:21.249Z,27.60
2018-08-12T21:24:49.407Z,27.70
2018-08-12T21:27:17.548Z,27.70
2018-08-12T21:29:45.713Z,27.70
2018-08-12T21:32:13.912Z,27.80
2018-08-12T21:34:42.124Z,27.90
2018-08-12T21:37:10.276Z,27.80
2018-08-12T21:39:38.490Z,27.70
2018-08-12T21:42:06.602Z,27.60
2018-08-12T21:44:34.856Z,27.50
2018-08-12T21:47:03.067Z,27.20
2018-08-12T21:49:37.820Z,26.90
2018-08-12T21:52:05.998Z,27.00
2018-08-12T21:54:34.332Z,26.90
2018-08-12T21:57:02.461Z,26.80
2018-08-12T21:59:30.618Z,26.60
2018-08-12T22:01:58.757Z,26.70
2018-08-12T22:04:27.027Z,26.70
2018-08-12T22:06:55.169Z,26.70
2018-08-12T22:09:23.307Z,26.70
2018-08-12T22:11:51.456Z,26.90
2018-08-12T22:14:19.824Z,26.70
2018-08-12T22:16:47.982Z,26.30
2018-08-12T22:19:16.199Z,26.20
2018-08-12T22:21:44.410Z,26.10
2018-08-12T22:24:12.541Z,26.30
2018-08-12T22:26:40.712Z,26.40
2018-08-12T22:29:08.852Z,26.40
2018-08-12T22:31:36.976Z,26.20
2018-08-12T22:34:05.183Z,26.30
2018-08-12T22:36:33.326Z,26.30
2018-08-12T22:39:01.492Z,26.20
2018-08-12T22:41:32.683Z,26.10
2018-08-12T22:44:00.839Z,26.00
2018-08-12T22:46:29.852Z,25.90
2018-08-12T22:48:57.985Z,26.00
2018-08-12T22:51:26.130Z,25.90
2018-08-12T22:53:54.333Z,25.90
2018-08-12T22:56:22.451Z,26.00
2018-08-12T22:58:50.575Z,26.10
2018-08-12T23:01:18.802Z,26.00
2018-08-12T23:03:47.280Z,26.10
2018-08-12T23:06:15.675Z,26.10
2018-08-12T23:08:43.816Z,26.10
2018-08-12T23:11:11.943Z,25.90
2018-08-12T23:13:40.096Z,25.90
2018-08-12T23:16:20.660Z,25.80
2018-08-12T23:18:48.830Z,26.00
2018-08-12T23:21:17.830Z,26.10
2018-08-12T23:23:47.105Z,25.90
2018-08-12T23:26:17.350Z,25.90
2018-08-12T23:28:45.779Z,26.00
2018-08-12T23:31:14.152Z,25.80
2018-08-12T23:33:42.287Z,25.80
2018-08-12T23:36:10.826Z,26.10
2018-08-12T23:38:39.139Z,26.20
2018-08-12T23:41:08.254Z,26.20
2018-08-12T23:43:36.382Z,26.40
2018-08-12T23:46:04.512Z,26.20
2018-08-12T23:48:32.758Z,26.20
2018-08-12T23:51:01.858Z,26.20
2018-08-12T23:53:30.124Z,26.00
2018-08-12T23:55:58.291Z,26.00
2018-08-12T23:58:26.467Z,25.90
